Cougar Ace — 9VKE — position and weather

sailwx.info

Track history (hours):
 
Tides and Currents Weather Stations Pressure Air Temp Water Temp Dewpoint Dewpoint Depression Visibility Wind Speed Wind Dir Waves Ship Positions

Cougar Ace

Last reported at 2018-Apr-23 06:59 UTC. Time now 2018-Apr-23 07:16 UTC.
Position N 34°20' E 132°28'.

Length 200 m; draft 7.1 m.

Type: Cargo ship. MMSI: 563329000.

Date/timePositionNaut miles runAvg speedWind from/ knotsBaromVisibWave heightAir tempDewpointWater temp
2018-Apr-23 06:59N 34°20' E 132°28'0 0.2
2018-Apr-23 06:30N 34°20' E 132°28'2 3.9
2018-Apr-23 06:00N 34°21' E 132°29'0 0.0
2018-Apr-22 22:30N 34°21' E 132°29'1 2.6
2018-Apr-22 21:58N 34°20' E 132°28'4 9.1
2018-Apr-22 21:30N 34°19' E 132°23'510.5
2018-Apr-22 21:00N 34°14' E 132°21'612.3
2018-Apr-22 20:30N 34°08' E 132°22'714.5
2018-Apr-22 20:00N 34°02' E 132°27'713.3
2018-Apr-22 19:30N 33°60' E 132°35'612.1
2018-Apr-22 19:01N 33°54' E 132°33'612.5
2018-Apr-22 18:30N 33°49' E 132°28'814.6
2018-Apr-22 17:58N 33°43' E 132°22'1214.9
2018-Apr-22 17:09N 33°34' E 132°12'215.4
2018-Apr-22 17:00N 33°32' E 132°10'815.6
2018-Apr-22 16:30N 33°27' E 132°04'714.8
2018-Apr-22 16:00N 33°21' E 131°59'4010.2
2018-Apr-22 12:04N 32°45' E 132°21'66 2.5
2018-Apr-21 10:09N 32°21' E 133°33'0 1.8
2018-Apr-21 10:00N 32°21' E 133°33'1 2.1
2018-Apr-21 09:31N 32°21' E 133°32'1 2.1
2018-Apr-21 09:00N 32°21' E 133°31'1 2.1
2018-Apr-21 08:30N 32°21' E 133°29'1 2.2
2018-Apr-21 08:01N 32°21' E 133°28'1 1.9
2018-Apr-21 07:27N 32°21' E 133°27'1 1.9
2018-Apr-21 07:00N 32°21' E 133°26'  
Track history (hours):
 
Tides and Currents Weather Stations Pressure Air Temp Water Temp Dewpoint Dewpoint Depression Visibility Wind Speed Wind Dir Waves Ship Positions

Cougar Ace

Last reported at 2018-Apr-23 06:59 UTC. Time now 2018-Apr-23 07:16 UTC.
Position N 34°20' E 132°28'.

Length 200 m; draft 7.1 m.

Type: Cargo ship. MMSI: 563329000.

Date/timePositionNaut miles runAvg speedWind from/ knotsBaromVisibWave heightAir tempDewpointWater temp
2018-Apr-23 06:59N 34°20' E 132°28'0 0.2
2018-Apr-23 06:30N 34°20' E 132°28'2 3.9
2018-Apr-23 06:00N 34°21' E 132°29'0 0.0
2018-Apr-22 22:30N 34°21' E 132°29'1 2.6
2018-Apr-22 21:58N 34°20' E 132°28'4 9.1
2018-Apr-22 21:30N 34°19' E 132°23'510.5
2018-Apr-22 21:00N 34°14' E 132°21'612.3
2018-Apr-22 20:30N 34°08' E 132°22'714.5
2018-Apr-22 20:00N 34°02' E 132°27'713.3
2018-Apr-22 19:30N 33°60' E 132°35'612.1
2018-Apr-22 19:01N 33°54' E 132°33'612.5
2018-Apr-22 18:30N 33°49' E 132°28'814.6
2018-Apr-22 17:58N 33°43' E 132°22'1214.9
2018-Apr-22 17:09N 33°34' E 132°12'215.4
2018-Apr-22 17:00N 33°32' E 132°10'815.6
2018-Apr-22 16:30N 33°27' E 132°04'714.8
2018-Apr-22 16:00N 33°21' E 131°59'4010.2
2018-Apr-22 12:04N 32°45' E 132°21'66 2.5
2018-Apr-21 10:09N 32°21' E 133°33'0 1.8
2018-Apr-21 10:00N 32°21' E 133°33'1 2.1
2018-Apr-21 09:31N 32°21' E 133°32'1 2.1
2018-Apr-21 09:00N 32°21' E 133°31'1 2.1
2018-Apr-21 08:30N 32°21' E 133°29'1 2.2
2018-Apr-21 08:01N 32°21' E 133°28'1 1.9
2018-Apr-21 07:27N 32°21' E 133°27'1 1.9
2018-Apr-21 07:00N 32°21' E 133°26'  

Dump ship's entire track history